Time;durP1;ratioP1;P1;durP2;ratioP2;P2;SDS_P1;SDS_P2;PMS_P1;PMS_P2;Temp;Humidity;BMP_temperature;BMP_pressure;BME280_temperature;BME280_humidity;BME280_pressure;Samples;Min_cycle;Max_cycle;Signal;HPM_P1;HPM_P2
2023/03/08 00:00:27;;;;;;;3.53;1.95;;;0.30;99.90;;;;;;4995361;28;92848;-73
2023/03/08 00:02:55;;;;;;;5.68;2.13;;;0.30;99.90;;;;;;4993742;28;92467;-73
2023/03/08 00:05:22;;;;;;;5.55;2.03;;;0.30;99.90;;;;;;4995317;28;92465;-73
2023/03/08 00:07:52;;;;;;;2.80;2.03;;;0.30;99.90;;;;;;5000878;28;92483;-73
2023/03/08 00:10:19;;;;;;;2.30;2.05;;;0.40;99.90;;;;;;5015187;28;92845;-73
2023/03/08 00:12:46;;;;;;;3.63;2.05;;;0.40;99.90;;;;;;5013516;28;92494;-73
2023/03/08 00:15:13;;;;;;;2.53;2.25;;;0.40;99.90;;;;;;4981205;28;93062;-73
2023/03/08 00:17:40;;;;;;;3.38;2.15;;;0.40;99.90;;;;;;4979394;28;95814;-73
2023/03/08 00:20:09;;;;;;;2.50;2.00;;;0.40;99.90;;;;;;5014738;28;95384;-73
2023/03/08 00:22:40;;;;;;;4.25;2.30;;;0.40;99.90;;;;;;5013397;28;92616;-73
2023/03/08 00:25:08;;;;;;;4.00;2.38;;;0.40;99.90;;;;;;5016409;28;92357;-72
2023/03/08 00:27:36;;;;;;;5.00;2.38;;;0.40;99.90;;;;;;5016862;28;98340;-73
2023/03/08 00:30:05;;;;;;;3.20;2.58;;;0.40;99.90;;;;;;4999981;28;95626;-72
2023/03/08 00:32:32;;;;;;;3.42;2.42;;;0.40;99.90;;;;;;5018387;28;92359;-73
2023/03/08 00:34:59;;;;;;;2.40;2.20;;;0.40;99.90;;;;;;5018679;28;92210;-73
2023/03/08 00:37:26;;;;;;;5.38;2.47;;;0.40;99.90;;;;;;5000018;28;92851;-73
2023/03/08 00:39:53;;;;;;;5.20;2.45;;;0.40;99.90;;;;;;5018066;28;92788;-72
2023/03/08 00:42:21;;;;;;;5.15;2.30;;;0.40;99.90;;;;;;4982274;28;94945;-73
2023/03/08 00:44:48;;;;;;;5.35;2.90;;;0.40;99.90;;;;;;4999684;28;92532;-72
2023/03/08 00:47:16;;;;;;;4.78;2.92;;;0.40;99.90;;;;;;4999848;28;95878;-72
2023/03/08 00:49:43;;;;;;;4.10;2.72;;;0.40;99.90;;;;;;4999419;28;95747;-73
2023/03/08 00:52:10;;;;;;;5.65;3.00;;;0.40;99.90;;;;;;4999774;28;92467;-73
2023/03/08 00:54:37;;;;;;;3.40;2.85;;;0.40;99.90;;;;;;5017991;28;93262;-72
2023/03/08 00:57:04;;;;;;;6.10;3.25;;;0.30;99.90;;;;;;5017842;28;93242;-72
2023/03/08 00:59:31;;;;;;;4.70;2.97;;;0.30;99.90;;;;;;4983756;28;95453;-72
2023/03/08 01:02:00;;;;;;;6.00;3.15;;;0.30;99.90;;;;;;4983548;28;92554;-73
2023/03/08 01:04:27;;;;;;;4.00;2.75;;;0.30;99.90;;;;;;4999750;28;92477;-72
2023/03/08 01:06:54;;;;;;;6.95;3.17;;;0.20;99.90;;;;;;5014855;28;95640;-72
2023/03/08 01:09:21;;;;;;;3.40;3.05;;;0.20;99.90;;;;;;5015856;28;97921;-73
2023/03/08 01:11:47;;;;;;;4.45;3.15;;;0.20;99.90;;;;;;5017924;28;92523;-73
2023/03/08 01:14:14;;;;;;;3.47;2.97;;;0.20;99.90;;;;;;4999278;28;92496;-73
2023/03/08 01:16:42;;;;;;;3.10;2.80;;;0.20;99.90;;;;;;4999391;28;96213;-73
2023/03/08 01:19:09;;;;;;;3.40;2.88;;;0.20;99.90;;;;;;4982574;28;95418;-72
2023/03/08 01:21:36;;;;;;;3.53;2.72;;;0.10;99.90;;;;;;4999509;28;92506;-73
2023/03/08 01:24:04;;;;;;;3.58;2.85;;;0.10;99.90;;;;;;4999474;28;91818;-72
2023/03/08 01:26:31;;;;;;;5.60;3.20;;;0.10;99.90;;;;;;5017419;28;93154;-73
2023/03/08 01:28:58;;;;;;;4.28;3.28;;;0.10;99.90;;;;;;4998827;28;95684;-73
2023/03/08 01:31:28;;;;;;;3.92;3.33;;;0.10;99.90;;;;;;4998465;28;94919;-73
2023/03/08 01:33:57;;;;;;;5.38;2.83;;;0.10;99.90;;;;;;4999162;28;92464;-72
2023/03/08 01:36:26;;;;;;;7.10;3.25;;;0.10;99.90;;;;;;5014609;28;95682;-73
2023/03/08 01:38:53;;;;;;;4.57;3.63;;;0.10;99.90;;;;;;4999653;28;92925;-72
2023/03/08 01:41:26;;;;;;;4.50;3.33;;;0.00;99.90;;;;;;5015763;28;92476;-72
2023/03/08 01:43:54;;;;;;;5.40;3.30;;;0.00;99.90;;;;;;4998827;28;92550;-73
2023/03/08 01:46:31;;;;;;;6.85;3.22;;;0.00;99.90;;;;;;4999069;28;95489;-72
2023/03/08 01:49:28;;;;;;;4.70;3.55;;;0.00;99.90;;;;;;4998996;28;95536;-72
2023/03/08 01:52:05;;;;;;;5.72;3.30;;;0.00;99.90;;;;;;4998958;28;92955;-73
2023/03/08 01:54:42;;;;;;;5.07;3.10;;;0.00;99.90;;;;;;4998947;28;93132;-72
2023/03/08 01:57:24;;;;;;;5.80;3.58;;;0.00;99.90;;;;;;4997353;28;98378;-72
2023/03/08 01:59:54;;;;;;;8.57;3.80;;;0.00;99.90;;;;;;4998502;28;97797;-72
2023/03/08 02:02:25;;;;;;;5.72;4.13;;;-0.10;99.90;;;;;;4998830;28;92558;-72
2023/03/08 02:04:54;;;;;;;7.15;3.83;;;0.00;99.90;;;;;;4998560;28;92517;-73
2023/03/08 02:07:21;;;;;;;7.03;3.78;;;-0.10;99.90;;;;;;4995651;28;95582;-73
2023/03/08 02:09:49;;;;;;;5.28;3.55;;;-0.10;99.90;;;;;;4998512;28;95390;-72
2023/03/08 02:12:17;;;;;;;5.40;3.78;;;-0.10;99.90;;;;;;4981907;28;92655;-72
2023/03/08 02:14:44;;;;;;;4.65;3.70;;;-0.10;99.90;;;;;;5016141;28;91782;-72
2023/03/08 02:17:11;;;;;;;10.27;4.68;;;-0.10;99.90;;;;;;4981820;28;95974;-72
2023/03/08 02:19:58;;;;;;;6.65;4.43;;;-0.10;99.90;;;;;;5014914;28;95561;-72
2023/03/08 02:22:25;;;;;;;4.50;4.03;;;-0.10;99.90;;;;;;4997121;28;94867;-72
2023/03/08 02:24:52;;;;;;;4.63;3.78;;;-0.10;99.90;;;;;;4982060;28;92533;-72
2023/03/08 02:27:23;;;;;;;6.15;4.32;;;-0.20;99.90;;;;;;5016381;28;93264;-72
2023/03/08 02:29:50;;;;;;;7.72;4.43;;;-0.10;99.90;;;;;;4998110;28;95543;-72
2023/03/08 02:32:17;;;;;;;6.32;4.30;;;-0.20;99.90;;;;;;4998094;28;92537;-73
2023/03/08 02:34:44;;;;;;;7.05;4.53;;;-0.20;99.90;;;;;;4998848;28;92455;-72
2023/03/08 02:37:11;;;;;;;7.53;5.35;;;-0.20;99.90;;;;;;4998094;28;95806;-72
2023/03/08 02:39:38;;;;;;;7.70;4.63;;;-0.20;99.90;;;;;;4998902;28;91798;-72
2023/03/08 02:42:05;;;;;;;6.22;5.47;;;-0.20;99.90;;;;;;4997880;28;92502;-72
2023/03/08 02:44:34;;;;;;;7.93;5.68;;;-0.20;99.90;;;;;;4982600;28;93223;-72
2023/03/08 02:47:01;;;;;;;7.78;5.75;;;-0.20;99.90;;;;;;4980196;28;98145;-72
2023/03/08 02:49:27;;;;;;;8.57;6.70;;;-0.20;99.90;;;;;;4997509;28;100789;-72
2023/03/08 02:51:56;;;;;;;9.75;6.60;;;-0.20;99.90;;;;;;4997927;28;92609;-72
2023/03/08 02:54:23;;;;;;;11.75;7.22;;;-0.20;99.90;;;;;;5016132;28;92436;-72
2023/03/08 02:56:49;;;;;;;9.13;6.70;;;-0.20;99.90;;;;;;4981429;28;95697;-72
2023/03/08 02:59:16;;;;;;;12.02;7.00;;;-0.20;99.90;;;;;;5014250;28;95339;-72
2023/03/08 03:01:44;;;;;;;11.35;7.13;;;-0.20;99.90;;;;;;4997990;28;92996;-72
2023/03/08 03:04:11;;;;;;;9.30;6.90;;;-0.20;99.90;;;;;;4981879;28;91764;-72
2023/03/08 03:06:38;;;;;;;10.55;6.85;;;-0.20;99.90;;;;;;4998286;28;93312;-72
2023/03/08 03:09:09;;;;;;;9.82;7.47;;;-0.20;99.90;;;;;;4997359;28;95240;-72
2023/03/08 03:11:38;;;;;;;10.82;7.45;;;-0.20;99.90;;;;;;5013205;28;94873;-72
2023/03/08 03:14:05;;;;;;;14.63;7.50;;;-0.20;99.90;;;;;;4997693;28;92576;-72
2023/03/08 03:16:37;;;;;;;10.18;7.55;;;-0.20;99.90;;;;;;4981972;28;95535;-72
2023/03/08 03:19:04;;;;;;;12.57;7.80;;;-0.10;99.90;;;;;;4997709;28;95575;-72
2023/03/08 03:21:31;;;;;;;11.20;7.75;;;-0.10;99.90;;;;;;4964627;28;92398;-72
2023/03/08 03:23:59;;;;;;;13.07;7.72;;;-0.10;99.90;;;;;;4997417;28;92564;-72
2023/03/08 03:26:33;;;;;;;15.77;8.85;;;-0.20;99.90;;;;;;4997096;28;95737;-72
2023/03/08 03:29:00;;;;;;;13.55;8.63;;;-0.10;99.90;;;;;;4997572;28;94004;-72
2023/03/08 03:31:32;;;;;;;16.73;8.25;;;-0.10;99.90;;;;;;4981688;28;92458;-72
2023/03/08 03:33:59;;;;;;;11.52;8.48;;;-0.10;99.90;;;;;;4997395;28;92625;-72
2023/03/08 03:36:27;;;;;;;13.82;8.50;;;-0.20;99.90;;;;;;4979236;28;97936;-72
2023/03/08 03:38:55;;;;;;;16.85;8.77;;;-0.10;99.90;;;;;;4997000;28;97493;-72
2023/03/08 03:41:23;;;;;;;12.43;8.50;;;-0.10;99.90;;;;;;4997083;28;92384;-72
2023/03/08 03:44:00;;;;;;;11.55;8.80;;;-0.10;99.90;;;;;;4997406;28;92653;-72
2023/03/08 03:46:28;;;;;;;11.10;7.97;;;-0.10;99.90;;;;;;4980531;28;95795;-72
2023/03/08 03:48:57;;;;;;;12.52;9.15;;;-0.20;99.90;;;;;;5015182;28;93009;-72
2023/03/08 03:51:26;;;;;;;11.93;8.50;;;-0.20;99.90;;;;;;4981284;28;92640;-72
2023/03/08 03:54:05;;;;;;;13.20;9.15;;;-0.20;99.90;;;;;;4997539;28;92386;-72
2023/03/08 03:56:34;;;;;;;12.73;8.98;;;-0.20;99.90;;;;;;4980894;28;95744;-72
2023/03/08 03:59:01;;;;;;;12.25;8.85;;;-0.20;99.90;;;;;;4996933;28;95627;-72
2023/03/08 04:01:29;;;;;;;13.50;8.60;;;-0.20;99.90;;;;;;4999478;28;95487;-72
2023/03/08 04:04:08;;;;;;;12.15;8.95;;;-0.20;99.90;;;;;;5000659;28;92496;-72
2023/03/08 04:06:39;;;;;;;13.43;9.32;;;-0.30;99.90;;;;;;5017225;28;95482;-72
2023/03/08 04:09:09;;;;;;;12.10;9.45;;;-0.30;99.90;;;;;;4996783;28;95562;-72
2023/03/08 04:11:39;;;;;;;11.45;9.45;;;-0.30;99.90;;;;;;4998923;28;92487;-72
2023/03/08 04:14:12;;;;;;;;;;;-0.30;99.90;;;;;;4997753;28;92533;-72
2023/03/08 04:16:40;;;;;;;12.80;9.25;;;-0.30;99.90;;;;;;4998221;28;95831;-72
2023/03/08 04:19:13;;;;;;;14.23;9.43;;;-0.40;99.90;;;;;;4997633;28;95067;-72
2023/03/08 04:21:47;;;;;;;16.65;10.68;;;-0.40;99.90;;;;;;4997293;28;92551;-72
2023/03/08 04:24:16;;;;;;;14.48;10.38;;;-0.40;99.90;;;;;;4996790;28;92470;-72
2023/03/08 04:26:46;;;;;;;13.75;10.38;;;-0.40;99.90;;;;;;4995077;28;97678;-72
2023/03/08 04:29:17;;;;;;;14.50;10.45;;;-0.40;99.90;;;;;;4980597;28;97551;-72
2023/03/08 04:31:44;;;;;;;15.43;11.05;;;-0.40;99.90;;;;;;4997887;28;92478;-72
2023/03/08 04:34:15;;;;;;;12.07;10.65;;;-0.30;99.90;;;;;;4996532;28;92924;-72
2023/03/08 04:36:46;;;;;;;16.85;10.38;;;-0.30;99.90;;;;;;4980523;28;95405;-72
2023/03/08 04:39:13;;;;;;;12.57;10.73;;;-0.30;99.90;;;;;;4996227;28;95444;-72
2023/03/08 04:41:40;;;;;;;12.50;10.68;;;-0.30;99.90;;;;;;4996685;28;93030;-72
2023/03/08 04:44:29;;;;;;;15.30;10.55;;;-0.20;99.90;;;;;;4996474;28;91679;-72
2023/03/08 04:46:56;;;;;;;14.93;10.93;;;-0.20;99.90;;;;;;4996047;28;94807;-72
2023/03/08 04:49:30;;;;;;;16.30;11.10;;;-0.20;99.90;;;;;;4996885;28;95141;-72
2023/03/08 04:52:00;;;;;;;13.88;10.85;;;-0.20;99.90;;;;;;4995159;28;94933;-72
2023/03/08 04:54:28;;;;;;;15.20;11.65;;;-0.20;99.90;;;;;;4996072;28;92965;-72
2023/03/08 04:57:07;;;;;;;15.25;11.07;;;-0.20;99.90;;;;;;4995980;28;94489;-72
2023/03/08 04:59:35;;;;;;;17.23;11.52;;;-0.10;99.90;;;;;;4995894;28;95376;-72
2023/03/08 05:02:03;;;;;;;17.23;11.48;;;-0.10;99.90;;;;;;4996175;28;92428;-72
2023/03/08 05:04:33;;;;;;;16.05;11.63;;;-0.10;99.90;;;;;;4995916;28;92520;-72
2023/03/08 05:07:00;;;;;;;20.55;11.40;;;-0.10;99.90;;;;;;4995937;28;95813;-72
2023/03/08 05:09:30;;;;;;;16.77;12.27;;;-0.10;99.90;;;;;;4995821;28;95295;-72
2023/03/08 05:11:58;;;;;;;15.07;11.05;;;-0.10;99.90;;;;;;4979387;28;92574;-72
2023/03/08 05:14:33;;;;;;;15.18;11.20;;;0.00;99.90;;;;;;4995377;28;92557;-72
2023/03/08 05:17:00;;;;;;;15.30;11.90;;;-0.10;99.90;;;;;;4994487;28;98311;-72
2023/03/08 05:19:31;;;;;;;17.70;11.98;;;-0.10;99.90;;;;;;4995451;28;96473;-72
2023/03/08 05:21:58;;;;;;;15.85;12.35;;;-0.10;99.90;;;;;;4995881;28;92568;-72
2023/03/08 05:24:26;;;;;;;14.50;11.60;;;-0.10;99.90;;;;;;4995599;28;92605;-72
2023/03/08 05:26:54;;;;;;;14.82;11.13;;;-0.10;99.90;;;;;;4995456;28;95889;-72
2023/03/08 05:29:21;;;;;;;19.73;12.60;;;-0.10;99.90;;;;;;4996883;28;92821;-72
2023/03/08 05:31:49;;;;;;;16.30;11.98;;;-0.10;99.90;;;;;;4978953;28;92521;-72
2023/03/08 05:34:17;;;;;;;16.10;12.05;;;-0.10;99.90;;;;;;4995891;28;91800;-72
2023/03/08 05:36:46;;;;;;;15.95;11.88;;;-0.10;99.90;;;;;;4995781;28;95732;-72
2023/03/08 05:39:13;;;;;;;16.08;11.98;;;-0.10;99.90;;;;;;4995551;28;95362;-72
2023/03/08 05:41:51;;;;;;;17.67;12.27;;;-0.10;99.90;;;;;;4995806;28;94900;-72
2023/03/08 05:44:27;;;;;;;17.65;12.05;;;-0.10;99.90;;;;;;4995444;28;93468;-72
2023/03/08 05:46:57;;;;;;;15.02;12.07;;;-0.10;99.90;;;;;;4995715;28;95998;-72
2023/03/08 05:49:25;;;;;;;14.70;11.73;;;-0.20;99.90;;;;;;4995145;28;95084;-72
2023/03/08 05:51:53;;;;;;;16.65;11.77;;;-0.20;99.90;;;;;;4994993;28;92589;-72
2023/03/08 05:54:22;;;;;;;16.23;12.05;;;-0.20;99.90;;;;;;4995297;28;93117;-72
2023/03/08 05:56:52;;;;;;;16.13;11.93;;;-0.20;99.90;;;;;;4994857;28;95700;-72
2023/03/08 05:59:26;;;;;;;18.80;13.40;;;-0.20;99.90;;;;;;5011697;28;92971;-72
2023/03/08 06:01:56;;;;;;;18.17;12.35;;;-0.20;99.90;;;;;;4995261;28;92522;-72
2023/03/08 06:04:45;;;;;;;16.55;13.10;;;-0.20;99.90;;;;;;4998178;28;93040;-72
2023/03/08 06:07:16;;;;;;;16.17;12.75;;;-0.30;99.90;;;;;;4993571;28;97881;-72
2023/03/08 06:09:50;;;;;;;18.65;12.65;;;-0.30;99.90;;;;;;4995397;28;97336;-72
2023/03/08 06:12:17;;;;;;;16.15;12.40;;;-0.30;99.90;;;;;;4995218;28;92507;-72
2023/03/08 06:14:48;;;;;;;19.52;13.07;;;-0.30;99.90;;;;;;4994607;28;92484;-72
2023/03/08 06:17:17;;;;;;;16.20;13.00;;;-0.30;99.90;;;;;;4978576;28;95751;-72
2023/03/08 06:19:47;;;;;;;18.35;12.93;;;-0.30;99.90;;;;;;4995136;28;95346;-72
2023/03/08 06:22:16;;;;;;;19.33;13.38;;;-0.30;99.90;;;;;;4994218;28;92517;-72
2023/03/08 06:24:48;;;;;;;17.05;13.05;;;-0.20;99.90;;;;;;4995121;28;91863;-72
2023/03/08 06:27:19;;;;;;;18.25;12.82;;;-0.20;99.90;;;;;;4994846;28;94403;-72
2023/03/08 06:29:49;;;;;;;17.33;13.25;;;-0.20;99.90;;;;;;4978349;28;95736;-72
2023/03/08 06:32:17;;;;;;;17.23;12.95;;;-0.10;99.90;;;;;;4993725;28;94869;-72
2023/03/08 06:34:45;;;;;;;17.85;13.35;;;-0.10;99.90;;;;;;4994421;28;92521;-72
2023/03/08 06:37:13;;;;;;;18.80;13.35;;;0.00;99.90;;;;;;4994450;28;95108;-72
2023/03/08 06:39:40;;;;;;;18.88;12.88;;;0.00;99.90;;;;;;4994073;28;95487;-72
2023/03/08 06:42:07;;;;;;;17.88;12.98;;;0.10;99.90;;;;;;4994775;28;92977;-72
2023/03/08 06:44:34;;;;;;;16.63;12.68;;;0.10;99.90;;;;;;4994278;28;92554;-72
2023/03/08 06:47:02;;;;;;;13.85;11.95;;;0.20;99.90;;;;;;4977930;28;94935;-72
2023/03/08 06:49:29;;;;;;;16.30;12.63;;;0.20;99.90;;;;;;4994654;28;95861;-72
2023/03/08 06:51:57;;;;;;;13.75;11.90;;;0.30;99.90;;;;;;4977909;28;92413;-72
2023/03/08 06:54:24;;;;;;;16.00;11.95;;;0.40;99.90;;;;;;4977620;28;92512;-72
2023/03/08 06:56:51;;;;;;;14.20;11.52;;;0.40;99.90;;;;;;4992865;28;98257;-72
2023/03/08 06:59:18;;;;;;;14.02;11.63;;;0.50;99.90;;;;;;4977884;28;98159;-71
2023/03/08 07:01:45;;;;;;;15.48;12.63;;;0.60;99.90;;;;;;4993840;28;92421;-72
2023/03/08 07:04:12;;;;;;;12.00;10.80;;;0.70;99.90;;;;;;4994218;28;92527;-72
2023/03/08 07:06:38;;;;;;;11.45;10.25;;;0.90;99.90;;;;;;4995328;28;93308;-72
2023/03/08 07:09:05;;;;;;;11.45;9.52;;;1.10;99.90;;;;;;5007839;28;93057;-72
2023/03/08 07:11:33;;;;;;;10.85;8.43;;;1.40;99.90;;;;;;5016037;28;92522;-72
2023/03/08 07:14:00;;;;;;;10.20;7.45;;;1.80;99.90;;;;;;5014741;28;91815;-72
2023/03/08 07:16:27;;;;;;;8.77;7.32;;;2.30;99.90;;;;;;5015872;28;93197;-73
2023/03/08 07:18:55;;;;;;;7.97;7.03;;;2.70;99.90;;;;;;5015521;28;92912;-72
2023/03/08 07:21:23;;;;;;;7.55;6.60;;;3.00;99.90;;;;;;5013341;28;94988;-72
2023/03/08 07:23:51;;;;;;;7.78;5.85;;;3.30;99.90;;;;;;5014159;28;92994;-72
2023/03/08 07:26:18;;;;;;;6.65;6.05;;;3.60;99.90;;;;;;5015668;28;96560;-72
2023/03/08 07:28:49;;;;;;;6.15;5.55;;;4.00;99.90;;;;;;5015358;28;92948;-72
2023/03/08 07:31:17;;;;;;;7.57;6.10;;;4.20;99.90;;;;;;5034656;28;92339;-72
2023/03/08 07:33:44;;;;;;;5.90;5.25;;;4.50;99.90;;;;;;5034929;27;92447;-72
2023/03/08 07:36:11;;;;;;;6.70;5.55;;;4.60;99.90;;;;;;5017186;28;93245;-72
2023/03/08 07:38:38;;;;;;;7.28;5.82;;;4.70;99.90;;;;;;5001199;28;95499;-72
2023/03/08 07:41:05;;;;;;;7.15;5.60;;;4.70;99.90;;;;;;5035637;28;92938;-73
2023/03/08 07:43:32;;;;;;;6.45;5.75;;;4.70;99.90;;;;;;5018000;28;92476;-73
2023/03/08 07:46:07;;;;;;;6.88;5.97;;;4.70;99.90;;;;;;5034347;28;95478;-73
2023/03/08 07:48:34;;;;;;;6.38;5.68;;;4.70;99.90;;;;;;5035257;28;95397;-73
2023/03/08 07:51:08;;;;;;;9.95;6.72;;;4.60;99.90;;;;;;5017724;28;92600;-73
2023/03/08 07:53:36;;;;;;;7.97;6.13;;;4.60;99.90;;;;;;5017895;28;92489;-73
2023/03/08 07:56:04;;;;;;;6.53;5.93;;;4.50;99.90;;;;;;5035179;28;93035;-73
2023/03/08 07:58:31;;;;;;;7.40;5.47;;;4.50;99.90;;;;;;5035254;28;93056;-73
2023/03/08 08:00:58;;;;;;;11.00;6.38;;;4.50;99.90;;;;;;5000798;28;92449;-73
2023/03/08 08:03:25;;;;;;;8.30;6.53;;;4.40;99.90;;;;;;5035966;28;91760;-73
2023/03/08 08:05:52;;;;;;;6.95;6.30;;;4.50;99.90;;;;;;5035054;28;93103;-72
2023/03/08 08:08:19;;;;;;;9.13;8.35;;;4.60;99.90;;;;;;5013776;28;93239;-73
2023/03/08 08:10:46;;;;;;;11.35;7.47;;;4.80;99.90;;;;;;5014179;28;94765;-72
2023/03/08 08:13:13;;;;;;;7.00;5.75;;;5.00;99.90;;;;;;4996954;28;101637;-73
2023/03/08 08:15:40;;;;;;;6.47;5.15;;;5.30;99.90;;;;;;5015040;28;93328;-73
2023/03/08 08:18:07;;;;;;;9.05;5.72;;;5.60;99.90;;;;;;5014981;28;93026;-73
2023/03/08 08:20:34;;;;;;;7.97;5.57;;;5.80;99.90;;;;;;5015390;28;92351;-73
2023/03/08 08:23:05;;;;;;;7.68;5.43;;;5.90;99.90;;;;;;5014898;28;92471;-73
2023/03/08 08:25:32;;;;;;;5.53;5.03;;;6.00;99.90;;;;;;5013569;28;94272;-73
2023/03/08 08:27:59;;;;;;;5.50;4.97;;;6.10;99.90;;;;;;5015049;28;93042;-73
2023/03/08 08:30:26;;;;;;;5.88;5.28;;;6.30;99.90;;;;;;5015045;28;92509;-73
2023/03/08 08:32:53;;;;;;;6.70;5.82;;;6.30;99.90;;;;;;5013665;28;92480;-73
2023/03/08 08:35:20;;;;;;;7.75;6.43;;;6.40;99.90;;;;;;5012200;28;95692;-73
2023/03/08 08:37:49;;;;;;;7.82;6.32;;;6.40;99.90;;;;;;5013587;28;95162;-74
2023/03/08 08:40:16;;;;;;;13.00;8.10;;;6.30;99.90;;;;;;5013845;28;92392;-73
2023/03/08 08:42:43;;;;;;;10.30;7.55;;;6.30;99.90;;;;;;5014731;28;92775;-73
2023/03/08 08:45:10;;;;;;;8.35;7.13;;;6.20;99.90;;;;;;5014689;28;93246;-73
2023/03/08 08:47:37;;;;;;;8.32;7.10;;;6.20;99.90;;;;;;5018325;28;92784;-73
2023/03/08 08:50:04;;;;;;;8.63;6.72;;;6.20;99.90;;;;;;5018023;28;92361;-73
2023/03/08 08:52:31;;;;;;;7.53;6.78;;;6.20;99.90;;;;;;5000648;28;91720;-73
2023/03/08 08:54:58;;;;;;;10.23;7.85;;;6.20;99.90;;;;;;5016561;28;93231;-73
2023/03/08 08:57:25;;;;;;;9.18;7.47;;;6.20;99.90;;;;;;5017760;28;93091;-73
2023/03/08 08:59:52;;;;;;;9.05;7.65;;;6.10;99.90;;;;;;5015667;28;95167;-73
2023/03/08 09:02:19;;;;;;;11.20;9.50;;;6.20;99.90;;;;;;5016885;28;92481;-73
2023/03/08 09:04:46;;;;;;;11.32;9.38;;;6.20;99.90;;;;;;5017962;28;93216;-73
2023/03/08 09:07:13;;;;;;;12.70;10.57;;;6.10;99.90;;;;;;5016447;28;92505;-73
2023/03/08 09:09:40;;;;;;;15.20;11.20;;;6.00;99.90;;;;;;5034798;28;92393;-73
2023/03/08 09:12:07;;;;;;;16.38;12.80;;;5.90;99.90;;;;;;5019486;28;92578;-73
2023/03/08 09:14:34;;;;;;;19.55;13.07;;;5.80;99.90;;;;;;5037344;28;93286;-73
2023/03/08 09:17:04;;;;;;;18.33;14.65;;;5.70;99.90;;;;;;5019519;28;91890;-73
2023/03/08 09:19:31;;;;;;;17.88;13.35;;;5.60;99.90;;;;;;5019053;28;93124;-73
2023/03/08 09:21:57;;;;;;;16.17;12.55;;;5.50;99.90;;;;;;5018926;28;99757;-73
2023/03/08 09:24:24;;;;;;;17.05;11.85;;;5.50;99.90;;;;;;5035538;28;95671;-73
2023/03/08 09:26:51;;;;;;;14.40;11.40;;;5.50;99.90;;;;;;5019172;28;95399;-73
2023/03/08 09:29:18;;;;;;;19.00;13.88;;;5.60;99.90;;;;;;5019280;28;93219;-73
2023/03/08 09:31:45;;;;;;;18.65;14.20;;;5.80;99.90;;;;;;5002736;28;92546;-73
2023/03/08 09:34:14;;;;;;;20.48;14.15;;;5.80;99.90;;;;;;5036510;28;93368;-73
2023/03/08 09:36:41;;;;;;;17.40;13.23;;;5.80;99.90;;;;;;5018986;28;93091;-73
2023/03/08 09:39:10;;;;;;;15.57;12.25;;;5.70;99.90;;;;;;5018625;28;92478;-73
2023/03/08 09:41:43;;;;;;;16.02;12.02;;;5.70;99.90;;;;;;5037394;28;93312;-74
2023/03/08 09:44:22;;;;;;;16.65;12.60;;;5.70;99.90;;;;;;5036618;28;93179;-73
2023/03/08 09:47:04;;;;;;;16.25;11.95;;;5.70;99.90;;;;;;5037239;28;93009;-73
2023/03/08 09:49:33;;;;;;;14.18;11.98;;;5.70;99.90;;;;;;5035587;28;94871;-73
2023/03/08 09:52:37;;;;;;;16.70;12.35;;;5.70;99.90;;;;;;5018680;28;92914;-73
2023/03/08 09:55:12;;;;;;;18.23;13.07;;;5.80;99.90;;;;;;5001523;28;94839;-73
2023/03/08 09:57:51;;;;;;;18.55;14.25;;;5.90;99.90;;;;;;5017089;28;95594;-74
2023/03/08 10:00:24;;;;;;;16.60;12.43;;;6.00;99.90;;;;;;5018435;28;92907;-73
2023/03/08 10:03:16;;;;;;;18.43;13.50;;;6.10;99.90;;;;;;5001956;28;92493;-73
2023/03/08 10:05:52;;;;;;;16.88;13.32;;;6.10;99.90;;;;;;5036676;28;93299;-73
2023/03/08 10:08:24;;;;;;;19.10;14.05;;;6.00;99.90;;;;;;5036439;28;92971;-73
2023/03/08 10:11:00;;;;;;;17.25;13.45;;;6.10;99.90;;;;;;5036746;28;93025;-73
2023/03/08 10:13:31;;;;;;;16.83;13.57;;;6.20;99.90;;;;;;5035728;28;92990;-74
2023/03/08 10:16:27;;;;;;;19.00;13.45;;;6.30;99.90;;;;;;5035181;28;95648;-73
2023/03/08 10:18:59;;;;;;;15.27;11.73;;;6.40;99.90;;;;;;5016732;28;98153;-73
2023/03/08 10:21:28;;;;;;;13.18;11.57;;;6.40;99.90;;;;;;5001246;28;92476;-73
2023/03/08 10:24:01;;;;;;;14.80;11.45;;;6.50;99.90;;;;;;5036499;28;93056;-73
2023/03/08 10:26:28;;;;;;;15.27;12.30;;;6.50;99.90;;;;;;5036105;28;93339;-73
2023/03/08 10:28:55;;;;;;;17.10;13.57;;;6.60;99.90;;;;;;5001172;28;94596;-73
2023/03/08 10:31:24;;;;;;;15.13;11.32;;;6.70;99.90;;;;;;5001975;28;93027;-73
2023/03/08 10:34:13;;;;;;;16.02;12.68;;;6.70;99.90;;;;;;5036569;28;91626;-74
2023/03/08 10:36:57;;;;;;;16.67;12.52;;;6.80;99.90;;;;;;5017541;28;96309;-74
2023/03/08 10:39:24;;;;;;;16.27;13.05;;;6.80;99.90;;;;;;5017860;28;93025;-73
2023/03/08 10:41:55;;;;;;;17.55;13.07;;;6.80;99.90;;;;;;5035016;28;94973;-73
2023/03/08 10:44:30;;;;;;;16.58;11.45;;;6.90;99.90;;;;;;5035891;28;92439;-73
2023/03/08 10:46:57;;;;;;;14.93;11.63;;;6.90;99.90;;;;;;5035881;28;93332;-73
2023/03/08 10:49:25;;;;;;;19.15;15.00;;;6.80;99.90;;;;;;5001375;28;93062;-74
2023/03/08 10:52:00;;;;;;;16.55;13.65;;;6.70;99.90;;;;;;5001136;28;92625;-73
2023/03/08 10:54:28;;;;;;;15.50;11.98;;;6.80;99.90;;;;;;5017731;28;92569;-73
2023/03/08 10:56:59;;;;;;;14.98;12.57;;;6.70;99.90;;;;;;5017881;28;93216;-74
2023/03/08 10:59:31;;;;;;;11.80;9.82;;;6.80;99.90;;;;;;5017857;28;93169;-74
2023/03/08 11:02:14;;;;;;;13.90;10.25;;;6.80;99.90;;;;;;5036678;28;92388;-74
2023/03/08 11:04:52;;;;;;;17.00;12.55;;;6.90;99.90;;;;;;5035565;28;92384;-73
2023/03/08 11:07:27;;;;;;;14.02;10.38;;;6.90;99.90;;;;;;5034185;28;95598;-73
2023/03/08 11:10:17;;;;;;;13.60;10.68;;;7.00;99.90;;;;;;5035312;27;95394;-73
2023/03/08 11:12:45;;;;;;;12.55;9.95;;;7.10;99.90;;;;;;5017638;28;92726;-73
2023/03/08 11:15:17;;;;;;;15.40;10.70;;;7.20;99.90;;;;;;5018248;28;92445;-74
2023/03/08 11:18:24;;;;;;;14.27;10.13;;;7.30;99.90;;;;;;5017517;28;94203;-76
2023/03/08 11:20:58;;;;;;;13.23;10.48;;;7.40;99.90;;;;;;5035625;28;93046;-76
2023/03/08 11:23:31;;;;;;;10.82;8.63;;;7.40;99.90;;;;;;5035120;28;92382;-74
2023/03/08 11:26:01;;;;;;;12.85;8.57;;;7.50;99.90;;;;;;5036411;28;91728;-74
2023/03/08 11:28:36;;;;;;;14.98;10.18;;;7.50;99.90;;;;;;5017347;28;96676;-74
2023/03/08 11:31:16;;;;;;;12.30;8.68;;;7.70;99.90;;;;;;5000415;28;95565;-74
2023/03/08 11:34:01;;;;;;;12.48;9.10;;;7.70;99.90;;;;;;5034641;28;94910;-74
2023/03/08 11:36:54;;;;;;;10.93;7.63;;;7.80;99.90;;;;;;5035786;28;92854;-74
2023/03/08 11:39:34;;;;;;;9.18;6.97;;;7.80;99.90;;;;;;5033503;28;93271;-74
2023/03/08 11:42:06;;;;;;;10.18;7.93;;;7.90;99.90;;;;;;5035529;28;93124;-74
2023/03/08 11:44:45;;;;;;;9.68;8.15;;;7.90;99.90;;;;;;5035792;28;92470;-74
2023/03/08 11:47:38;;;;;;;10.88;9.10;;;8.00;99.90;;;;;;5035789;28;92815;-74
2023/03/08 11:50:13;;;;;;;11.25;7.63;;;8.00;99.90;;;;;;5017183;28;95784;-74
2023/03/08 11:53:19;;;;;;;10.05;7.85;;;7.90;99.90;;;;;;5035875;28;92990;-74
2023/03/08 11:56:04;;;;;;;11.18;8.00;;;8.10;99.90;;;;;;5016955;28;92453;-73
2023/03/08 11:58:41;;;;;;;9.50;8.07;;;8.00;99.90;;;;;;5017085;28;92558;-74
2023/03/08 12:01:40;;;;;;;8.45;6.75;;;8.10;99.90;;;;;;5034197;28;95743;-73
2023/03/08 12:04:19;;;;;;;9.70;7.22;;;8.20;99.90;;;;;;5031999;28;95411;-74
2023/03/08 12:06:46;;;;;;;8.70;6.68;;;8.20;99.90;;;;;;5017302;28;92466;-74
2023/03/08 12:09:36;;;;;;;8.50;6.88;;;8.10;99.90;;;;;;5000304;28;92507;-74
2023/03/08 12:12:23;;;;;;;8.60;7.10;;;8.10;99.90;;;;;;5017045;28;95769;-73
2023/03/08 12:15:05;;;;;;;6.70;6.00;;;8.20;99.90;;;;;;5035328;28;92732;-73
2023/03/08 12:17:43;;;;;;;6.78;5.90;;;8.30;99.90;;;;;;5035025;28;92430;-73
2023/03/08 12:20:14;;;;;;;6.75;5.40;;;8.40;99.90;;;;;;5017495;28;91701;-73
2023/03/08 12:22:50;;;;;;;9.25;5.60;;;8.40;99.90;;;;;;5020377;28;94269;-74
2023/03/08 12:25:34;;;;;;;5.75;5.00;;;8.30;99.90;;;;;;5021037;28;93571;-73
2023/03/08 12:28:16;;;;;;;8.13;6.47;;;8.30;99.90;;;;;;5037629;28;94935;-74
2023/03/08 12:30:58;;;;;;;5.95;5.32;;;8.40;99.90;;;;;;5038605;28;92565;-73
2023/03/08 12:33:27;;;;;;;7.32;5.95;;;8.40;99.90;;;;;;5038682;28;93109;-73
2023/03/08 12:36:01;;;;;;;8.45;5.65;;;8.30;99.90;;;;;;5038128;28;92490;-74
2023/03/08 12:38:39;;;;;;;7.85;6.45;;;8.40;99.90;;;;;;5020302;28;92424;-73
2023/03/08 12:41:20;;;;;;;11.82;5.13;;;8.40;99.90;;;;;;5020342;28;92633;-73
2023/03/08 12:44:01;;;;;;;8.23;5.40;;;8.40;99.90;;;;;;5038491;28;93237;-73
2023/03/08 12:46:47;;;;;;;5.55;4.03;;;8.50;99.90;;;;;;5038319;28;93531;-74
2023/03/08 12:49:34;;;;;;;5.95;3.55;;;8.40;99.90;;;;;;5038669;28;92417;-73
2023/03/08 12:52:05;;;;;;;7.13;4.68;;;8.30;99.90;;;;;;5020110;28;92906;-73
2023/03/08 12:54:34;;;;;;;4.47;3.58;;;8.20;99.90;;;;;;5018470;28;98249;-74
2023/03/08 12:57:13;;;;;;;5.40;3.70;;;8.20;99.90;;;;;;5003232;28;95363;-73
2023/03/08 12:59:40;;;;;;;6.93;3.03;;;8.20;99.90;;;;;;5020263;28;92417;-73
2023/03/08 13:02:30;;;;;;;4.38;3.53;;;8.10;99.50;;;;;;5019903;28;92581;-73